sensor_id;sensor_type;location;lat;lon;timestamp;P1;durP1;ratioP1;P2;durP2;ratioP2
22849;SDS011;11591;44.792;10.358;2022-07-29T04:01:26;8.75;;;5.75;;
22849;SDS011;11591;44.792;10.358;2022-07-29T04:03:54;13.68;;;7.10;;
22849;SDS011;11591;44.792;10.358;2022-07-29T04:06:21;10.65;;;7.85;;
22849;SDS011;11591;44.792;10.358;2022-07-29T04:08:46;16.52;;;9.50;;
22849;SDS011;11591;44.792;10.358;2022-07-29T04:11:12;10.88;;;7.07;;
22849;SDS011;11591;44.792;10.358;2022-07-29T04:13:38;12.05;;;7.13;;
22849;SDS011;11591;44.792;10.358;2022-07-29T04:16:04;13.27;;;7.55;;
22849;SDS011;11591;44.792;10.358;2022-07-29T04:18:30;13.95;;;8.10;;
22849;SDS011;11591;44.792;10.358;2022-07-29T04:20:56;12.70;;;8.23;;
22849;SDS011;11591;44.792;10.358;2022-07-29T04:23:24;13.32;;;5.63;;
22849;SDS011;11591;44.792;10.358;2022-07-29T04:25:50;8.23;;;5.70;;
22849;SDS011;11591;44.792;10.358;2022-07-29T04:28:15;11.60;;;5.57;;
22849;SDS011;11591;44.792;10.358;2022-07-29T04:30:41;25.60;;;18.00;;
22849;SDS011;11591;44.792;10.358;2022-07-29T04:33:07;11.95;;;6.40;;
22849;SDS011;11591;44.792;10.358;2022-07-29T04:35:34;10.25;;;5.93;;
22849;SDS011;11591;44.792;10.358;2022-07-29T04:38:01;11.32;;;5.85;;
22849;SDS011;11591;44.792;10.358;2022-07-29T04:40:27;9.68;;;5.60;;
22849;SDS011;11591;44.792;10.358;2022-07-29T04:42:54;11.85;;;5.70;;
22849;SDS011;11591;44.792;10.358;2022-07-29T04:45:19;8.48;;;5.85;;
22849;SDS011;11591;44.792;10.358;2022-07-29T04:47:45;12.07;;;6.18;;
22849;SDS011;11591;44.792;10.358;2022-07-29T04:50:11;9.20;;;6.03;;
22849;SDS011;11591;44.792;10.358;2022-07-29T04:52:37;11.02;;;6.07;;
22849;SDS011;11591;44.792;10.358;2022-07-29T04:55:03;12.10;;;5.88;;
22849;SDS011;11591;44.792;10.358;2022-07-29T04:57:30;12.93;;;7.07;;
22849;SDS011;11591;44.792;10.358;2022-07-29T04:59:56;14.73;;;7.82;;
22849;SDS011;11591;44.792;10.358;2022-07-29T05:02:22;15.73;;;7.20;;
22849;SDS011;11591;44.792;10.358;2022-07-29T05:04:48;10.32;;;7.03;;
22849;SDS011;11591;44.792;10.358;2022-07-29T05:07:14;10.45;;;7.13;;
22849;SDS011;11591;44.792;10.358;2022-07-29T05:09:40;11.00;;;7.20;;
22849;SDS011;11591;44.792;10.358;2022-07-29T05:12:06;10.48;;;7.78;;
22849;SDS011;11591;44.792;10.358;2022-07-29T05:14:32;12.32;;;7.97;;
22849;SDS011;11591;44.792;10.358;2022-07-29T05:16:58;13.35;;;8.32;;
22849;SDS011;11591;44.792;10.358;2022-07-29T05:19:24;13.95;;;9.05;;
22849;SDS011;11591;44.792;10.358;2022-07-29T05:21:50;19.50;;;10.30;;
22849;SDS011;11591;44.792;10.358;2022-07-29T05:24:16;21.50;;;11.45;;
22849;SDS011;11591;44.792;10.358;2022-07-29T05:26:41;16.83;;;10.68;;
22849;SDS011;11591;44.792;10.358;2022-07-29T05:29:07;18.70;;;11.55;;
22849;SDS011;11591;44.792;10.358;2022-07-29T05:31:33;20.17;;;11.30;;
22849;SDS011;11591;44.792;10.358;2022-07-29T05:33:59;21.42;;;12.65;;
22849;SDS011;11591;44.792;10.358;2022-07-29T05:36:25;23.60;;;12.65;;
22849;SDS011;11591;44.792;10.358;2022-07-29T05:38:51;20.73;;;10.82;;
22849;SDS011;11591;44.792;10.358;2022-07-29T05:41:18;23.58;;;11.90;;
22849;SDS011;11591;44.792;10.358;2022-07-29T05:43:44;14.45;;;10.63;;
22849;SDS011;11591;44.792;10.358;2022-07-29T05:46:10;17.90;;;8.65;;
22849;SDS011;11591;44.792;10.358;2022-07-29T05:48:35;18.00;;;9.20;;
22849;SDS011;11591;44.792;10.358;2022-07-29T05:51:01;13.88;;;8.00;;
22849;SDS011;11591;44.792;10.358;2022-07-29T05:53:27;12.90;;;7.82;;
22849;SDS011;11591;44.792;10.358;2022-07-29T05:55:53;13.82;;;8.05;;
22849;SDS011;11591;44.792;10.358;2022-07-29T05:58:19;15.55;;;7.18;;
22849;SDS011;11591;44.792;10.358;2022-07-29T06:00:45;12.32;;;7.53;;
22849;SDS011;11591;44.792;10.358;2022-07-29T06:03:11;11.90;;;7.55;;
22849;SDS011;11591;44.792;10.358;2022-07-29T06:05:37;12.77;;;6.78;;
22849;SDS011;11591;44.792;10.358;2022-07-29T06:08:03;11.40;;;7.25;;
22849;SDS011;11591;44.792;10.358;2022-07-29T06:10:33;10.90;;;6.88;;
22849;SDS011;11591;44.792;10.358;2022-07-29T06:13:00;12.63;;;8.00;;
22849;SDS011;11591;44.792;10.358;2022-07-29T06:15:26;12.27;;;7.95;;
22849;SDS011;11591;44.792;10.358;2022-07-29T06:17:51;11.13;;;7.85;;
22849;SDS011;11591;44.792;10.358;2022-07-29T06:20:18;12.20;;;7.43;;
22849;SDS011;11591;44.792;10.358;2022-07-29T06:22:44;15.48;;;7.75;;
22849;SDS011;11591;44.792;10.358;2022-07-29T06:25:10;10.95;;;7.10;;
22849;SDS011;11591;44.792;10.358;2022-07-29T06:27:36;14.07;;;8.15;;
22849;SDS011;11591;44.792;10.358;2022-07-29T06:30:03;10.60;;;7.72;;
22849;SDS011;11591;44.792;10.358;2022-07-29T06:32:31;19.73;;;10.13;;
22849;SDS011;11591;44.792;10.358;2022-07-29T06:34:58;19.13;;;9.95;;
22849;SDS011;11591;44.792;10.358;2022-07-29T06:37:23;17.45;;;11.10;;
22849;SDS011;11591;44.792;10.358;2022-07-29T06:39:49;22.50;;;10.55;;
22849;SDS011;11591;44.792;10.358;2022-07-29T06:42:35;20.50;;;10.10;;
22849;SDS011;11591;44.792;10.358;2022-07-29T06:45:01;20.85;;;10.95;;
22849;SDS011;11591;44.792;10.358;2022-07-29T06:47:27;17.42;;;10.27;;
22849;SDS011;11591;44.792;10.358;2022-07-29T06:49:52;16.92;;;10.85;;
22849;SDS011;11591;44.792;10.358;2022-07-29T06:52:18;24.42;;;11.85;;
22849;SDS011;11591;44.792;10.358;2022-07-29T06:54:44;25.92;;;15.27;;
22849;SDS011;11591;44.792;10.358;2022-07-29T06:57:13;22.63;;;15.13;;
22849;SDS011;11591;44.792;10.358;2022-07-29T06:59:39;23.13;;;14.85;;
22849;SDS011;11591;44.792;10.358;2022-07-29T07:02:05;21.58;;;14.52;;
22849;SDS011;11591;44.792;10.358;2022-07-29T07:04:31;22.35;;;13.68;;
22849;SDS011;11591;44.792;10.358;2022-07-29T07:06:57;19.40;;;12.50;;
22849;SDS011;11591;44.792;10.358;2022-07-29T07:09:24;23.33;;;14.60;;
22849;SDS011;11591;44.792;10.358;2022-07-29T07:11:50;19.00;;;13.20;;
22849;SDS011;11591;44.792;10.358;2022-07-29T07:14:15;24.50;;;12.63;;
22849;SDS011;11591;44.792;10.358;2022-07-29T07:16:41;25.10;;;14.75;;
22849;SDS011;11591;44.792;10.358;2022-07-29T07:19:07;19.95;;;11.55;;
22849;SDS011;11591;44.792;10.358;2022-07-29T07:21:33;19.55;;;12.93;;
22849;SDS011;11591;44.792;10.358;2022-07-29T07:23:59;19.67;;;11.70;;
22849;SDS011;11591;44.792;10.358;2022-07-29T07:26:25;17.67;;;11.55;;
22849;SDS011;11591;44.792;10.358;2022-07-29T07:28:52;22.10;;;13.45;;
22849;SDS011;11591;44.792;10.358;2022-07-29T07:31:18;22.33;;;14.15;;
22849;SDS011;11591;44.792;10.358;2022-07-29T07:33:43;19.30;;;12.50;;
22849;SDS011;11591;44.792;10.358;2022-07-29T07:36:09;20.67;;;11.77;;
22849;SDS011;11591;44.792;10.358;2022-07-29T07:38:35;19.33;;;10.63;;
22849;SDS011;11591;44.792;10.358;2022-07-29T07:41:01;16.52;;;11.25;;
22849;SDS011;11591;44.792;10.358;2022-07-29T07:43:27;21.77;;;12.10;;
22849;SDS011;11591;44.792;10.358;2022-07-29T07:45:53;25.00;;;12.25;;
22849;SDS011;11591;44.792;10.358;2022-07-29T07:48:19;18.77;;;12.30;;
22849;SDS011;11591;44.792;10.358;2022-07-29T07:50:45;21.42;;;12.70;;
22849;SDS011;11591;44.792;10.358;2022-07-29T07:53:11;17.75;;;12.25;;
22849;SDS011;11591;44.792;10.358;2022-07-29T07:55:43;17.88;;;9.98;;
22849;SDS011;11591;44.792;10.358;2022-07-29T07:58:10;18.95;;;11.15;;
22849;SDS011;11591;44.792;10.358;2022-07-29T08:00:36;18.52;;;12.40;;
22849;SDS011;11591;44.792;10.358;2022-07-29T08:03:02;21.35;;;13.38;;
22849;SDS011;11591;44.792;10.358;2022-07-29T08:05:28;21.83;;;13.38;;
22849;SDS011;11591;44.792;10.358;2022-07-29T08:07:54;26.48;;;12.48;;
22849;SDS011;11591;44.792;10.358;2022-07-29T08:10:20;19.73;;;11.95;;
22849;SDS011;11591;44.792;10.358;2022-07-29T08:13:05;20.70;;;11.50;;
22849;SDS011;11591;44.792;10.358;2022-07-29T08:15:32;22.35;;;12.05;;
22849;SDS011;11591;44.792;10.358;2022-07-29T08:17:58;15.40;;;9.05;;
22849;SDS011;11591;44.792;10.358;2022-07-29T08:20:24;14.50;;;8.35;;
22849;SDS011;11591;44.792;10.358;2022-07-29T08:22:50;10.73;;;6.78;;
22849;SDS011;11591;44.792;10.358;2022-07-29T08:25:16;19.15;;;11.02;;
22849;SDS011;11591;44.792;10.358;2022-07-29T08:27:45;21.13;;;11.77;;
22849;SDS011;11591;44.792;10.358;2022-07-29T08:30:12;21.13;;;11.73;;
22849;SDS011;11591;44.792;10.358;2022-07-29T08:32:38;16.95;;;10.75;;
22849;SDS011;11591;44.792;10.358;2022-07-29T08:35:04;20.35;;;11.75;;
22849;SDS011;11591;44.792;10.358;2022-07-29T08:37:30;20.83;;;11.20;;
22849;SDS011;11591;44.792;10.358;2022-07-29T08:39:56;23.77;;;12.63;;
22849;SDS011;11591;44.792;10.358;2022-07-29T08:42:22;18.30;;;12.57;;
22849;SDS011;11591;44.792;10.358;2022-07-29T08:44:48;18.67;;;12.70;;
22849;SDS011;11591;44.792;10.358;2022-07-29T08:47:15;20.75;;;12.55;;
22849;SDS011;11591;44.792;10.358;2022-07-29T08:49:42;16.90;;;12.07;;
22849;SDS011;11591;44.792;10.358;2022-07-29T08:52:11;18.75;;;10.70;;
22849;SDS011;11591;44.792;10.358;2022-07-29T08:54:38;17.73;;;11.60;;
22849;SDS011;11591;44.792;10.358;2022-07-29T08:57:08;16.73;;;10.98;;
22849;SDS011;11591;44.792;10.358;2022-07-29T08:59:34;13.77;;;10.07;;
22849;SDS011;11591;44.792;10.358;2022-07-29T09:02:02;18.10;;;11.15;;
22849;SDS011;11591;44.792;10.358;2022-07-29T09:04:29;24.20;;;11.10;;
22849;SDS011;11591;44.792;10.358;2022-07-29T09:07:00;17.73;;;10.13;;
22849;SDS011;11591;44.792;10.358;2022-07-29T09:09:29;17.40;;;10.90;;
22849;SDS011;11591;44.792;10.358;2022-07-29T09:11:55;14.23;;;9.00;;
22849;SDS011;11591;44.792;10.358;2022-07-29T09:14:21;15.40;;;8.57;;
22849;SDS011;11591;44.792;10.358;2022-07-29T09:16:48;17.30;;;9.80;;
22849;SDS011;11591;44.792;10.358;2022-07-29T09:19:35;15.52;;;9.40;;
22849;SDS011;11591;44.792;10.358;2022-07-29T09:22:03;19.83;;;10.70;;
22849;SDS011;11591;44.792;10.358;2022-07-29T09:29:45;17.00;;;10.13;;
22849;SDS011;11591;44.792;10.358;2022-07-29T09:32:11;13.40;;;9.27;;
22849;SDS011;11591;44.792;10.358;2022-07-29T09:34:37;9.10;;;5.72;;
22849;SDS011;11591;44.792;10.358;2022-07-29T09:37:04;8.75;;;6.43;;
22849;SDS011;11591;44.792;10.358;2022-07-29T09:39:31;10.13;;;6.80;;
22849;SDS011;11591;44.792;10.358;2022-07-29T09:42:03;11.70;;;7.38;;
22849;SDS011;11591;44.792;10.358;2022-07-29T09:44:47;10.10;;;6.68;;
22849;SDS011;11591;44.792;10.358;2022-07-29T09:47:14;12.73;;;7.45;;
22849;SDS011;11591;44.792;10.358;2022-07-29T09:49:54;14.50;;;7.68;;
22849;SDS011;11591;44.792;10.358;2022-07-29T09:52:24;14.23;;;9.73;;
22849;SDS011;11591;44.792;10.358;2022-07-29T09:54:52;18.27;;;9.40;;
22849;SDS011;11591;44.792;10.358;2022-07-29T09:57:23;11.77;;;7.32;;
22849;SDS011;11591;44.792;10.358;2022-07-29T09:59:57;9.85;;;6.72;;
22849;SDS011;11591;44.792;10.358;2022-07-29T10:02:31;14.57;;;7.95;;
22849;SDS011;11591;44.792;10.358;2022-07-29T10:05:00;10.70;;;6.82;;
22849;SDS011;11591;44.792;10.358;2022-07-29T10:07:42;11.68;;;7.93;;
22849;SDS011;11591;44.792;10.358;2022-07-29T10:12:56;14.50;;;7.43;;
22849;SDS011;11591;44.792;10.358;2022-07-29T10:15:29;8.98;;;5.75;;
22849;SDS011;11591;44.792;10.358;2022-07-29T10:17:57;13.80;;;5.80;;
22849;SDS011;11591;44.792;10.358;2022-07-29T10:20:24;11.07;;;5.20;;
22849;SDS011;11591;44.792;10.358;2022-07-29T10:22:51;8.55;;;5.38;;
22849;SDS011;11591;44.792;10.358;2022-07-29T10:25:18;8.00;;;5.57;;
22849;SDS011;11591;44.792;10.358;2022-07-29T10:27:45;9.70;;;5.53;;
22849;SDS011;11591;44.792;10.358;2022-07-29T10:30:13;7.45;;;5.40;;
22849;SDS011;11591;44.792;10.358;2022-07-29T10:38:26;8.70;;;5.13;;
22849;SDS011;11591;44.792;10.358;2022-07-29T10:40:57;13.73;;;9.35;;
22849;SDS011;11591;44.792;10.358;2022-07-29T10:43:51;9.98;;;7.15;;
22849;SDS011;11591;44.792;10.358;2022-07-29T10:46:26;8.00;;;5.20;;
22849;SDS011;11591;44.792;10.358;2022-07-29T10:57:45;10.27;;;4.60;;
22849;SDS011;11591;44.792;10.358;2022-07-29T11:05:04;6.22;;;4.75;;
22849;SDS011;11591;44.792;10.358;2022-07-29T11:07:32;7.95;;;5.00;;
22849;SDS011;11591;44.792;10.358;2022-07-29T11:31:49;7.78;;;4.47;;
22849;SDS011;11591;44.792;10.358;2022-07-29T11:39:38;6.28;;;4.18;;
22849;SDS011;11591;44.792;10.358;2022-07-29T11:45:06;7.13;;;5.32;;
22849;SDS011;11591;44.792;10.358;2022-07-29T11:47:47;5.65;;;4.43;;
22849;SDS011;11591;44.792;10.358;2022-07-29T11:50:17;17.80;;;10.70;;
22849;SDS011;11591;44.792;10.358;2022-07-29T11:52:54;9.75;;;5.72;;
22849;SDS011;11591;44.792;10.358;2022-07-29T11:55:21;8.70;;;6.47;;
22849;SDS011;11591;44.792;10.358;2022-07-29T11:57:58;7.65;;;4.63;;
22849;SDS011;11591;44.792;10.358;2022-07-29T12:00:27;7.38;;;4.43;;
22849;SDS011;11591;44.792;10.358;2022-07-29T12:02:55;6.90;;;4.68;;
22849;SDS011;11591;44.792;10.358;2022-07-29T12:05:29;8.45;;;4.18;;
22849;SDS011;11591;44.792;10.358;2022-07-29T12:07:58;7.88;;;4.85;;
22849;SDS011;11591;44.792;10.358;2022-07-29T12:10:30;8.50;;;4.95;;
22849;SDS011;11591;44.792;10.358;2022-07-29T12:12:57;7.03;;;4.55;;
22849;SDS011;11591;44.792;10.358;2022-07-29T12:15:22;7.63;;;4.97;;
22849;SDS011;11591;44.792;10.358;2022-07-29T12:17:50;6.97;;;4.53;;
22849;SDS011;11591;44.792;10.358;2022-07-29T12:20:23;10.40;;;4.75;;
22849;SDS011;11591;44.792;10.358;2022-07-29T12:22:51;8.95;;;4.65;;
22849;SDS011;11591;44.792;10.358;2022-07-29T12:25:19;7.10;;;4.32;;
22849;SDS011;11591;44.792;10.358;2022-07-29T12:27:47;6.97;;;4.75;;
22849;SDS011;11591;44.792;10.358;2022-07-29T12:30:22;5.13;;;3.95;;
22849;SDS011;11591;44.792;10.358;2022-07-29T12:32:58;7.40;;;5.10;;
22849;SDS011;11591;44.792;10.358;2022-07-29T12:35:24;10.85;;;6.70;;
22849;SDS011;11591;44.792;10.358;2022-07-29T12:37:50;13.80;;;6.88;;
22849;SDS011;11591;44.792;10.358;2022-07-29T12:40:17;7.82;;;4.53;;
22849;SDS011;11591;44.792;10.358;2022-07-29T12:43:17;7.57;;;4.07;;
22849;SDS011;11591;44.792;10.358;2022-07-29T12:45:36;9.73;;;4.50;;
22849;SDS011;11591;44.792;10.358;2022-07-29T12:48:03;9.25;;;4.18;;
22849;SDS011;11591;44.792;10.358;2022-07-29T12:50:29;5.95;;;3.72;;
22849;SDS011;11591;44.792;10.358;2022-07-29T12:53:07;6.22;;;4.18;;
22849;SDS011;11591;44.792;10.358;2022-07-29T13:01:45;7.97;;;4.68;;
22849;SDS011;11591;44.792;10.358;2022-07-29T13:06:59;6.97;;;4.50;;
22849;SDS011;11591;44.792;10.358;2022-07-29T13:09:44;6.50;;;4.43;;
22849;SDS011;11591;44.792;10.358;2022-07-29T13:12:13;8.20;;;4.60;;
22849;SDS011;11591;44.792;10.358;2022-07-29T13:14:45;8.63;;;4.57;;
22849;SDS011;11591;44.792;10.358;2022-07-29T13:17:22;6.72;;;4.72;;
22849;SDS011;11591;44.792;10.358;2022-07-29T13:19:49;6.88;;;4.60;;
22849;SDS011;11591;44.792;10.358;2022-07-29T13:22:37;5.32;;;4.53;;
22849;SDS011;11591;44.792;10.358;2022-07-29T13:25:04;8.10;;;4.50;;
22849;SDS011;11591;44.792;10.358;2022-07-29T13:27:33;5.65;;;4.57;;
22849;SDS011;11591;44.792;10.358;2022-07-29T13:30:02;8.52;;;4.50;;
22849;SDS011;11591;44.792;10.358;2022-07-29T13:32:30;8.57;;;4.50;;
22849;SDS011;11591;44.792;10.358;2022-07-29T13:35:00;10.40;;;4.88;;
22849;SDS011;11591;44.792;10.358;2022-07-29T13:37:28;9.23;;;4.85;;
22849;SDS011;11591;44.792;10.358;2022-07-29T13:39:55;7.28;;;4.72;;
22849;SDS011;11591;44.792;10.358;2022-07-29T13:42:22;11.57;;;5.03;;
22849;SDS011;11591;44.792;10.358;2022-07-29T13:44:49;12.63;;;4.72;;
22849;SDS011;11591;44.792;10.358;2022-07-29T13:47:17;8.98;;;4.90;;
22849;SDS011;11591;44.792;10.358;2022-07-29T13:49:43;14.48;;;5.97;;
22849;SDS011;11591;44.792;10.358;2022-07-29T13:52:09;14.65;;;6.68;;
22849;SDS011;11591;44.792;10.358;2022-07-29T13:54:35;17.38;;;8.43;;
22849;SDS011;11591;44.792;10.358;2022-07-29T13:57:03;14.27;;;8.10;;
22849;SDS011;11591;44.792;10.358;2022-07-29T13:59:32;16.50;;;7.13;;
22849;SDS011;11591;44.792;10.358;2022-07-29T14:01:58;21.98;;;7.50;;
22849;SDS011;11591;44.792;10.358;2022-07-29T14:04:24;14.95;;;7.50;;
22849;SDS011;11591;44.792;10.358;2022-07-29T14:06:50;19.35;;;11.25;;
22849;SDS011;11591;44.792;10.358;2022-07-29T14:09:16;19.27;;;10.27;;
22849;SDS011;11591;44.792;10.358;2022-07-29T14:11:42;20.65;;;9.25;;
22849;SDS011;11591;44.792;10.358;2022-07-29T14:14:08;20.58;;;8.63;;
22849;SDS011;11591;44.792;10.358;2022-07-29T14:16:35;23.55;;;8.23;;
22849;SDS011;11591;44.792;10.358;2022-07-29T14:19:01;12.20;;;7.05;;
22849;SDS011;11591;44.792;10.358;2022-07-29T14:21:27;13.90;;;6.97;;
22849;SDS011;11591;44.792;10.358;2022-07-29T14:23:53;12.45;;;7.38;;
22849;SDS011;11591;44.792;10.358;2022-07-29T14:26:20;10.13;;;7.40;;
22849;SDS011;11591;44.792;10.358;2022-07-29T14:28:47;13.70;;;6.47;;
22849;SDS011;11591;44.792;10.358;2022-07-29T14:31:13;12.25;;;6.57;;
22849;SDS011;11591;44.792;10.358;2022-07-29T14:33:39;12.15;;;7.20;;
22849;SDS011;11591;44.792;10.358;2022-07-29T14:36:05;15.57;;;7.50;;
22849;SDS011;11591;44.792;10.358;2022-07-29T14:38:31;10.98;;;6.82;;
22849;SDS011;11591;44.792;10.358;2022-07-29T14:40:58;12.77;;;7.30;;
22849;SDS011;11591;44.792;10.358;2022-07-29T14:43:24;10.80;;;7.40;;
22849;SDS011;11591;44.792;10.358;2022-07-29T14:45:50;12.43;;;7.97;;
22849;SDS011;11591;44.792;10.358;2022-07-29T14:48:16;10.10;;;7.07;;
22849;SDS011;11591;44.792;10.358;2022-07-29T14:50:41;11.30;;;7.50;;
22849;SDS011;11591;44.792;10.358;2022-07-29T14:53:07;14.50;;;7.72;;
22849;SDS011;11591;44.792;10.358;2022-07-29T14:55:33;15.63;;;7.38;;
22849;SDS011;11591;44.792;10.358;2022-07-29T14:57:59;15.13;;;7.68;;
22849;SDS011;11591;44.792;10.358;2022-07-29T15:00:25;15.20;;;8.80;;
22849;SDS011;11591;44.792;10.358;2022-07-29T15:02:51;17.10;;;9.57;;
22849;SDS011;11591;44.792;10.358;2022-07-29T15:05:17;15.95;;;9.68;;
22849;SDS011;11591;44.792;10.358;2022-07-29T15:07:42;15.30;;;9.00;;
22849;SDS011;11591;44.792;10.358;2022-07-29T15:10:08;12.88;;;8.70;;
22849;SDS011;11591;44.792;10.358;2022-07-29T15:12:34;14.65;;;8.00;;
22849;SDS011;11591;44.792;10.358;2022-07-29T15:15:00;12.40;;;7.10;;
22849;SDS011;11591;44.792;10.358;2022-07-29T15:17:26;10.00;;;6.50;;
22849;SDS011;11591;44.792;10.358;2022-07-29T15:19:52;10.13;;;5.57;;
22849;SDS011;11591;44.792;10.358;2022-07-29T15:22:18;6.80;;;5.50;;
22849;SDS011;11591;44.792;10.358;2022-07-29T15:24:43;8.13;;;4.55;;
22849;SDS011;11591;44.792;10.358;2022-07-29T15:27:09;9.27;;;4.60;;
22849;SDS011;11591;44.792;10.358;2022-07-29T15:29:44;11.85;;;4.18;;
22849;SDS011;11591;44.792;10.358;2022-07-29T15:32:10;11.70;;;4.13;;
22849;SDS011;11591;44.792;10.358;2022-07-29T15:34:37;5.72;;;3.58;;
22849;SDS011;11591;44.792;10.358;2022-07-29T15:37:03;6.68;;;3.80;;
22849;SDS011;11591;44.792;10.358;2022-07-29T15:39:29;8.45;;;4.30;;
22849;SDS011;11591;44.792;10.358;2022-07-29T15:41:55;5.38;;;3.65;;
22849;SDS011;11591;44.792;10.358;2022-07-29T15:44:21;9.52;;;4.80;;
22849;SDS011;11591;44.792;10.358;2022-07-29T15:46:47;5.25;;;3.80;;
22849;SDS011;11591;44.792;10.358;2022-07-29T15:49:32;9.48;;;3.85;;
22849;SDS011;11591;44.792;10.358;2022-07-29T15:52:02;5.13;;;3.92;;
22849;SDS011;11591;44.792;10.358;2022-07-29T15:54:34;8.68;;;4.45;;
22849;SDS011;11591;44.792;10.358;2022-07-29T15:57:01;8.15;;;5.00;;
22849;SDS011;11591;44.792;10.358;2022-07-29T15:59:28;7.15;;;4.32;;
22849;SDS011;11591;44.792;10.358;2022-07-29T16:01:54;8.63;;;4.93;;
22849;SDS011;11591;44.792;10.358;2022-07-29T16:04:20;7.03;;;4.28;;
22849;SDS011;11591;44.792;10.358;2022-07-29T16:06:46;6.18;;;4.03;;
22849;SDS011;11591;44.792;10.358;2022-07-29T16:09:13;8.73;;;4.38;;
22849;SDS011;11591;44.792;10.358;2022-07-29T16:11:40;11.00;;;8.50;;
22849;SDS011;11591;44.792;10.358;2022-07-29T16:14:06;9.23;;;6.20;;
22849;SDS011;11591;44.792;10.358;2022-07-29T16:16:32;8.82;;;4.85;;
22849;SDS011;11591;44.792;10.358;2022-07-29T16:18:58;8.65;;;5.57;;
22849;SDS011;11591;44.792;10.358;2022-07-29T16:21:24;8.70;;;4.15;;
22849;SDS011;11591;44.792;10.358;2022-07-29T16:23:50;7.53;;;4.00;;
22849;SDS011;11591;44.792;10.358;2022-07-29T16:26:16;7.18;;;3.63;;
22849;SDS011;11591;44.792;10.358;2022-07-29T16:28:42;5.57;;;3.83;;
22849;SDS011;11591;44.792;10.358;2022-07-29T16:31:08;6.07;;;3.90;;
22849;SDS011;11591;44.792;10.358;2022-07-29T16:33:34;5.70;;;3.15;;
22849;SDS011;11591;44.792;10.358;2022-07-29T16:36:00;5.47;;;3.47;;
22849;SDS011;11591;44.792;10.358;2022-07-29T16:38:26;5.85;;;3.60;;
22849;SDS011;11591;44.792;10.358;2022-07-29T16:40:51;4.55;;;3.30;;
22849;SDS011;11591;44.792;10.358;2022-07-29T16:43:17;4.97;;;3.60;;
22849;SDS011;11591;44.792;10.358;2022-07-29T16:45:43;6.50;;;3.70;;
22849;SDS011;11591;44.792;10.358;2022-07-29T16:48:09;6.72;;;3.65;;
22849;SDS011;11591;44.792;10.358;2022-07-29T16:50:35;5.18;;;3.40;;
22849;SDS011;11591;44.792;10.358;2022-07-29T16:53:02;4.97;;;3.67;;
22849;SDS011;11591;44.792;10.358;2022-07-29T16:55:28;5.45;;;3.50;;
22849;SDS011;11591;44.792;10.358;2022-07-29T16:57:53;5.82;;;3.10;;
22849;SDS011;11591;44.792;10.358;2022-07-29T17:00:19;6.93;;;3.45;;
22849;SDS011;11591;44.792;10.358;2022-07-29T17:02:46;4.95;;;3.55;;
22849;SDS011;11591;44.792;10.358;2022-07-29T17:05:12;6.25;;;3.30;;
22849;SDS011;11591;44.792;10.358;2022-07-29T17:07:38;5.10;;;3.67;;
22849;SDS011;11591;44.792;10.358;2022-07-29T17:10:05;5.55;;;3.75;;
22849;SDS011;11591;44.792;10.358;2022-07-29T17:12:35;6.75;;;3.63;;
22849;SDS011;11591;44.792;10.358;2022-07-29T17:15:05;7.63;;;3.75;;
22849;SDS011;11591;44.792;10.358;2022-07-29T17:17:33;4.90;;;3.20;;
22849;SDS011;11591;44.792;10.358;2022-07-29T17:19:59;5.75;;;3.72;;
22849;SDS011;11591;44.792;10.358;2022-07-29T17:22:25;4.38;;;3.30;;
22849;SDS011;11591;44.792;10.358;2022-07-29T17:24:51;5.38;;;3.63;;
22849;SDS011;11591;44.792;10.358;2022-07-29T17:27:17;6.70;;;3.70;;
22849;SDS011;11591;44.792;10.358;2022-07-29T17:29:43;5.22;;;3.50;;
22849;SDS011;11591;44.792;10.358;2022-07-29T17:32:09;5.05;;;3.30;;
22849;SDS011;11591;44.792;10.358;2022-07-29T17:34:35;6.18;;;3.72;;
22849;SDS011;11591;44.792;10.358;2022-07-29T17:37:02;7.28;;;3.65;;
22849;SDS011;11591;44.792;10.358;2022-07-29T17:39:28;5.85;;;3.20;;
22849;SDS011;11591;44.792;10.358;2022-07-29T17:41:54;5.20;;;3.42;;
22849;SDS011;11591;44.792;10.358;2022-07-29T17:44:20;9.32;;;3.78;;
22849;SDS011;11591;44.792;10.358;2022-07-29T17:46:46;7.90;;;3.97;;
22849;SDS011;11591;44.792;10.358;2022-07-29T17:49:11;6.55;;;3.47;;
22849;SDS011;11591;44.792;10.358;2022-07-29T17:51:37;5.00;;;4.03;;
22849;SDS011;11591;44.792;10.358;2022-07-29T17:54:03;6.28;;;3.67;;
22849;SDS011;11591;44.792;10.358;2022-07-29T17:56:29;6.60;;;3.90;;
22849;SDS011;11591;44.792;10.358;2022-07-29T17:58:55;5.53;;;3.67;;
22849;SDS011;11591;44.792;10.358;2022-07-29T18:01:21;5.85;;;3.90;;
22849;SDS011;11591;44.792;10.358;2022-07-29T18:03:46;11.30;;;4.43;;
22849;SDS011;11591;44.792;10.358;2022-07-29T18:06:12;8.45;;;4.40;;
22849;SDS011;11591;44.792;10.358;2022-07-29T18:08:38;6.30;;;4.00;;
22849;SDS011;11591;44.792;10.358;2022-07-29T18:11:04;8.90;;;4.30;;
22849;SDS011;11591;44.792;10.358;2022-07-29T18:13:30;9.60;;;4.68;;
22849;SDS011;11591;44.792;10.358;2022-07-29T18:15:56;9.32;;;5.00;;
22849;SDS011;11591;44.792;10.358;2022-07-29T18:18:22;7.65;;;5.07;;
22849;SDS011;11591;44.792;10.358;2022-07-29T18:20:48;8.23;;;5.30;;
22849;SDS011;11591;44.792;10.358;2022-07-29T18:23:14;9.20;;;5.38;;
22849;SDS011;11591;44.792;10.358;2022-07-29T18:25:41;9.20;;;5.30;;
22849;SDS011;11591;44.792;10.358;2022-07-29T18:28:07;12.05;;;5.10;;
22849;SDS011;11591;44.792;10.358;2022-07-29T18:30:33;7.53;;;5.22;;
22849;SDS011;11591;44.792;10.358;2022-07-29T18:33:01;7.50;;;5.07;;
22849;SDS011;11591;44.792;10.358;2022-07-29T18:35:28;8.85;;;5.30;;
22849;SDS011;11591;44.792;10.358;2022-07-29T18:37:54;9.13;;;5.22;;
22849;SDS011;11591;44.792;10.358;2022-07-29T18:40:20;7.75;;;4.65;;
22849;SDS011;11591;44.792;10.358;2022-07-29T18:42:49;6.97;;;5.03;;
22849;SDS011;11591;44.792;10.358;2022-07-29T18:45:15;10.15;;;6.15;;
22849;SDS011;11591;44.792;10.358;2022-07-29T18:47:40;9.45;;;6.15;;
22849;SDS011;11591;44.792;10.358;2022-07-29T18:50:07;11.18;;;6.50;;
22849;SDS011;11591;44.792;10.358;2022-07-29T18:52:33;12.27;;;7.05;;
22849;SDS011;11591;44.792;10.358;2022-07-29T18:54:59;9.73;;;6.43;;
22849;SDS011;11591;44.792;10.358;2022-07-29T18:57:26;10.35;;;6.20;;
22849;SDS011;11591;44.792;10.358;2022-07-29T18:59:53;16.35;;;6.78;;
22849;SDS011;11591;44.792;10.358;2022-07-29T19:02:21;13.63;;;7.40;;
22849;SDS011;11591;44.792;10.358;2022-07-29T19:04:47;15.52;;;6.55;;
22849;SDS011;11591;44.792;10.358;2022-07-29T19:07:17;11.80;;;7.70;;
22849;SDS011;11591;44.792;10.358;2022-07-29T19:09:44;9.00;;;6.97;;
22849;SDS011;11591;44.792;10.358;2022-07-29T19:12:10;13.40;;;7.88;;
22849;SDS011;11591;44.792;10.358;2022-07-29T19:14:37;13.98;;;7.90;;
22849;SDS011;11591;44.792;10.358;2022-07-29T19:17:03;14.45;;;8.23;;
22849;SDS011;11591;44.792;10.358;2022-07-29T19:19:29;11.65;;;7.57;;
22849;SDS011;11591;44.792;10.358;2022-07-29T19:21:55;11.80;;;8.13;;
22849;SDS011;11591;44.792;10.358;2022-07-29T19:24:21;11.70;;;8.52;;
22849;SDS011;11591;44.792;10.358;2022-07-29T19:26:47;15.85;;;9.20;;
22849;SDS011;11591;44.792;10.358;2022-07-29T19:29:13;11.20;;;8.50;;
22849;SDS011;11591;44.792;10.358;2022-07-29T19:31:40;14.52;;;9.43;;